PWSweather.com
Personal Weather Stations
Station Observations
ALOHA852
Aloha, OR

Aloha, OR

Lat: 45.476667, Lon: -122.894722

Elevation: 278

Station Type: Ambient Weather

Latest ConditionsUpdated 1:08:00 AM PDT Wednesday, Oct 1, 2014
Currently Today's Max Today's Min Today's Average
Temperature 53.1°F11.7°C 54.5°F12.5°C 53.1°F11.7°C 53.9°F12.2°C
Dew Point 51.1°F10.6°C 51.8°F11.0°C 50.6°F10.3°C 51.2°F10.7°C
Winds 3.0 mph NE4.8 kmh NE 3.8 mph NNE6.1 kmh NNE - 3.0 mph 4.8 kmh
Wind Gusts 4.5 mph7.2 kmh 4.5 mph7.2 kmh - -
Humidity 93% 93% 89% 91%
Pressure 29.79 in1008.8 mb 29.80 in1009.1 mb 29.78 in1008.5 mb -
Hour Temp Dew Point Humidity Winds Wind Gusts Pressure Precip Precip Rate Daily Precip Total
01:08 AM 53.1°F11.7°C 51.1°F10.6°C 93% 3.0 mph NE4.8 kmh NE 4.5 mph7.2 kmh 29.79 in1008.8 mb 0.00 in0.0 mm 0.00 in/hr0.0 mm/hr 0.00 in0.0 mm
01:07 AM 53.2°F11.8°C 51.0°F10.6°C 92% 3.0 mph NE4.8 kmh NE 4.5 mph7.2 kmh 29.80 in1009.1 mb 0.00 in0.0 mm 0.00 in/hr0.0 mm/hr 0.00 in0.0 mm
01:06 AM 53.2°F11.8°C 51.0°F10.6°C 92% 3.1 mph NE5.0 kmh NE 4.5 mph7.2 kmh 29.80 in1009.1 mb 0.00 in0.0 mm 0.00 in/hr0.0 mm/hr 0.00 in0.0 mm
01:05 AM 53.1°F11.7°C 50.8°F10.4°C 92% 3.2 mph NE5.1 kmh NE 4.5 mph7.2 kmh 29.80 in1009.1 mb 0.00 in0.0 mm 0.00 in/hr0.0 mm/hr 0.00 in0.0 mm
01:04 AM 53.2°F11.8°C 51.0°F10.6°C 92% 3.2 mph NE5.1 kmh NE 4.5 mph7.2 kmh 29.80 in1009.1 mb 0.00 in0.0 mm 0.00 in/hr0.0 mm/hr 0.00 in0.0 mm
01:03 AM 53.6°F12.0°C 51.3°F10.7°C 92% 3.1 mph NE5.0 kmh NE 4.5 mph7.2 kmh 29.80 in1009.1 mb 0.00 in0.0 mm 0.00 in/hr0.0 mm/hr 0.00 in0.0 mm
01:02 AM 53.4°F11.9°C 50.9°F10.5°C 91% 3.1 mph NNE5.0 kmh NNE 4.5 mph7.2 kmh 29.80 in1009.1 mb 0.00 in0.0 mm 0.00 in/hr0.0 mm/hr 0.00 in0.0 mm
01:01 AM 53.4°F11.9°C 50.9°F10.5°C 91% 3.2 mph NNE5.1 kmh NNE 4.5 mph7.2 kmh 29.80 in1009.1 mb 0.00 in0.0 mm 0.00 in/hr0.0 mm/hr 0.00 in0.0 mm
01:00 AM 53.4°F11.9°C 50.9°F10.5°C 91% 3.4 mph NNE5.5 kmh NNE 4.5 mph7.2 kmh 29.79 in1008.8 mb 0.00 in0.0 mm 0.00 in/hr0.0 mm/hr 0.00 in0.0 mm
12:59 AM 53.4°F11.9°C 50.9°F10.5°C 91% 3.3 mph NNE5.3 kmh NNE 3.8 mph6.1 kmh 29.80 in1009.1 mb 0.00 in0.0 mm 0.00 in/hr0.0 mm/hr 0.00 in0.0 mm
12:58 AM 53.6°F12.0°C 51.0°F10.6°C 91% 3.3 mph NNE5.3 kmh NNE 3.8 mph6.1 kmh 29.80 in1009.1 mb 0.00 in0.0 mm 0.00 in/hr0.0 mm/hr 0.00 in0.0 mm
12:57 AM 53.6°F12.0°C 51.0°F10.6°C 91% 3.3 mph N5.3 kmh N 3.8 mph6.1 kmh 29.79 in1008.8 mb 0.00 in0.0 mm 0.00 in/hr0.0 mm/hr 0.00 in0.0 mm
12:56 AM 53.6°F12.0°C 51.0°F10.6°C 91% 3.2 mph N5.1 kmh N 3.8 mph6.1 kmh 29.80 in1009.1 mb 0.00 in0.0 mm 0.00 in/hr0.0 mm/hr 0.00 in0.0 mm
12:55 AM 53.8°F12.1°C 51.2°F10.7°C 91% 3.2 mph NNE5.1 kmh NNE 3.8 mph6.1 kmh 29.80 in1009.1 mb 0.00 in0.0 mm 0.00 in/hr0.0 mm/hr 0.00 in0.0 mm
12:54 AM 53.4°F11.9°C 50.9°F10.5°C 91% 3.3 mph NNE5.3 kmh NNE 3.8 mph6.1 kmh 29.80 in1009.1 mb 0.00 in0.0 mm 0.00 in/hr0.0 mm/hr 0.00 in0.0 mm
12:53 AM 53.8°F12.1°C 51.2°F10.7°C 91% 3.4 mph N5.5 kmh N 3.8 mph6.1 kmh 29.80 in1009.1 mb 0.00 in0.0 mm 0.00 in/hr0.0 mm/hr 0.00 in0.0 mm
12:52 AM 54.0°F12.2°C 51.4°F10.8°C 91% 3.3 mph N5.3 kmh N 3.8 mph6.1 kmh 29.79 in1008.8 mb 0.00 in0.0 mm 0.00 in/hr0.0 mm/hr 0.00 in0.0 mm
12:51 AM 53.4°F11.9°C 50.9°F10.5°C 91% 3.2 mph NNE5.1 kmh NNE 3.8 mph6.1 kmh 29.79 in1008.8 mb 0.00 in0.0 mm 0.00 in/hr0.0 mm/hr 0.00 in0.0 mm
12:50 AM 53.6°F12.0°C 51.0°F10.6°C 91% 3.1 mph NNE5.0 kmh NNE 3.8 mph6.1 kmh 29.79 in1008.8 mb 0.00 in0.0 mm 0.00 in/hr0.0 mm/hr 0.00 in0.0 mm
12:49 AM 53.6°F12.0°C 51.0°F10.6°C 91% 3.0 mph NNE4.8 kmh NNE 3.8 mph6.1 kmh 29.79 in1008.8 mb 0.00 in0.0 mm 0.00 in/hr0.0 mm/hr 0.00 in0.0 mm
12:48 AM 53.6°F12.0°C 51.0°F10.6°C 91% 3.0 mph NNE4.8 kmh NNE 3.8 mph6.1 kmh 29.80 in1009.1 mb 0.00 in0.0 mm 0.00 in/hr0.0 mm/hr 0.00 in0.0 mm
12:47 AM 53.6°F12.0°C 51.0°F10.6°C 91% 2.8 mph NE4.5 kmh NE 3.8 mph6.1 kmh 29.79 in1008.8 mb 0.00 in0.0 mm 0.00 in/hr0.0 mm/hr 0.00 in0.0 mm
12:46 AM 53.8°F12.1°C 51.2°F10.7°C 91% 2.5 mph NE4.0 kmh NE 3.8 mph6.1 kmh 29.80 in1009.1 mb 0.00 in0.0 mm 0.00 in/hr0.0 mm/hr 0.00 in0.0 mm
12:45 AM 53.6°F12.0°C 51.0°F10.6°C 91% 2.3 mph NE3.7 kmh NE 3.8 mph6.1 kmh 29.79 in1008.8 mb 0.00 in0.0 mm 0.00 in/hr0.0 mm/hr 0.00 in0.0 mm
12:44 AM 53.8°F12.1°C 51.2°F10.7°C 91% 2.2 mph NNE3.5 kmh NNE 3.8 mph6.1 kmh 29.79 in1008.8 mb 0.00 in0.0 mm 0.00 in/hr0.0 mm/hr 0.00 in0.0 mm
12:43 AM 53.8°F12.1°C 51.2°F10.7°C 91% 2.0 mph NE3.2 kmh NE 3.1 mph5.0 kmh 29.79 in1008.8 mb 0.00 in0.0 mm 0.00 in/hr0.0 mm/hr 0.00 in0.0 mm
12:42 AM 53.8°F12.1°C 50.9°F10.5°C 90% 2.0 mph NE3.2 kmh NE 3.1 mph5.0 kmh 29.79 in1008.8 mb 0.00 in0.0 mm 0.00 in/hr0.0 mm/hr 0.00 in0.0 mm
12:41 AM 53.8°F12.1°C 51.2°F10.7°C 91% 2.1 mph NE3.4 kmh NE 3.1 mph5.0 kmh 29.79 in1008.8 mb 0.00 in0.0 mm 0.00 in/hr0.0 mm/hr 0.00 in0.0 mm
12:40 AM 53.8°F12.1°C 50.9°F10.5°C 90% 2.1 mph NE3.4 kmh NE 3.1 mph5.0 kmh 29.79 in1008.8 mb 0.00 in0.0 mm 0.00 in/hr0.0 mm/hr 0.00 in0.0 mm
12:39 AM 53.4°F11.9°C 50.6°F10.3°C 90% 2.0 mph NE3.2 kmh NE 3.1 mph5.0 kmh 29.79 in1008.8 mb 0.00 in0.0 mm 0.00 in/hr0.0 mm/hr 0.00 in0.0 mm
12:38 AM 53.8°F12.1°C 50.9°F10.5°C 90% 2.1 mph NE3.4 kmh NE 3.1 mph5.0 kmh 29.79 in1008.8 mb 0.00 in0.0 mm 0.00 in/hr0.0 mm/hr 0.00 in0.0 mm
12:37 AM 54.0°F12.2°C 51.1°F10.6°C 90% 2.3 mph NE3.7 kmh NE 3.1 mph5.0 kmh 29.79 in1008.8 mb 0.00 in0.0 mm 0.00 in/hr0.0 mm/hr 0.00 in0.0 mm
12:36 AM 54.1°F12.3°C 51.3°F10.7°C 90% 2.6 mph NE4.2 kmh NE 3.1 mph5.0 kmh 29.79 in1008.8 mb 0.00 in0.0 mm 0.00 in/hr0.0 mm/hr 0.00 in0.0 mm
12:35 AM 54.1°F12.3°C 51.6°F10.9°C 91% 2.7 mph NE4.3 kmh NE 3.8 mph6.1 kmh 29.79 in1008.8 mb 0.00 in0.0 mm 0.00 in/hr0.0 mm/hr 0.00 in0.0 mm
12:34 AM 54.0°F12.2°C 51.1°F10.6°C 90% 2.8 mph NE4.5 kmh NE 3.8 mph6.1 kmh 29.79 in1008.8 mb 0.00 in0.0 mm 0.00 in/hr0.0 mm/hr 0.00 in0.0 mm
12:33 AM 53.8°F12.1°C 50.9°F10.5°C 90% 2.9 mph NE4.7 kmh NE 3.8 mph6.1 kmh 29.79 in1008.8 mb 0.00 in0.0 mm 0.00 in/hr0.0 mm/hr 0.00 in0.0 mm
12:32 AM 54.0°F12.2°C 51.1°F10.6°C 90% 3.1 mph NE5.0 kmh NE 3.8 mph6.1 kmh 29.79 in1008.8 mb 0.00 in0.0 mm 0.00 in/hr0.0 mm/hr 0.00 in0.0 mm
12:31 AM 53.6°F12.0°C 50.7°F10.4°C 90% 3.1 mph NE5.0 kmh NE 3.8 mph6.1 kmh 29.79 in1008.8 mb 0.00 in0.0 mm 0.00 in/hr0.0 mm/hr 0.00 in0.0 mm
12:30 AM 54.1°F12.3°C 51.3°F10.7°C 90% 3.3 mph NE5.3 kmh NE 3.8 mph6.1 kmh 29.79 in1008.8 mb 0.00 in0.0 mm 0.00 in/hr0.0 mm/hr 0.00 in0.0 mm
12:29 AM 54.1°F12.3°C 51.3°F10.7°C 90% 3.4 mph NE5.5 kmh NE 3.8 mph6.1 kmh 29.79 in1008.8 mb 0.00 in0.0 mm 0.00 in/hr0.0 mm/hr 0.00 in0.0 mm
12:28 AM 54.1°F12.3°C 51.3°F10.7°C 90% 3.3 mph NE5.3 kmh NE 3.8 mph6.1 kmh 29.79 in1008.8 mb 0.00 in0.0 mm 0.00 in/hr0.0 mm/hr 0.00 in0.0 mm
12:27 AM 54.0°F12.2°C 51.1°F10.6°C 90% 3.4 mph NE5.5 kmh NE 4.5 mph7.2 kmh 29.79 in1008.8 mb 0.00 in0.0 mm 0.00 in/hr0.0 mm/hr 0.00 in0.0 mm
12:26 AM 54.1°F12.3°C 51.3°F10.7°C 90% 3.5 mph NE5.6 kmh NE 4.5 mph7.2 kmh 29.79 in1008.8 mb 0.00 in0.0 mm 0.00 in/hr0.0 mm/hr 0.00 in0.0 mm
12:25 AM 54.1°F12.3°C 51.3°F10.7°C 90% 3.5 mph NE5.6 kmh NE 4.5 mph7.2 kmh 29.79 in1008.8 mb 0.00 in0.0 mm 0.00 in/hr0.0 mm/hr 0.00 in0.0 mm
12:24 AM 54.3°F12.4°C 51.5°F10.8°C 90% 3.5 mph NNE5.6 kmh NNE 4.5 mph7.2 kmh 29.79 in1008.8 mb 0.00 in0.0 mm 0.00 in/hr0.0 mm/hr 0.00 in0.0 mm
12:23 AM 54.3°F12.4°C 51.5°F10.8°C 90% 3.6 mph NNE5.8 kmh NNE 4.5 mph7.2 kmh 29.79 in1008.8 mb 0.00 in0.0 mm 0.00 in/hr0.0 mm/hr 0.00 in0.0 mm
12:22 AM 54.5°F12.5°C 51.6°F10.9°C 90% 3.6 mph NNE5.8 kmh NNE 4.5 mph7.2 kmh 29.79 in1008.8 mb 0.00 in0.0 mm 0.00 in/hr0.0 mm/hr 0.00 in0.0 mm
12:21 AM 54.3°F12.4°C 51.5°F10.8°C 90% 3.6 mph NNE5.8 kmh NNE 4.5 mph7.2 kmh 29.79 in1008.8 mb 0.00 in0.0 mm 0.00 in/hr0.0 mm/hr 0.00 in0.0 mm
12:20 AM 54.1°F12.3°C 51.3°F10.7°C 90% 3.7 mph NNE6.0 kmh NNE 4.5 mph7.2 kmh 29.79 in1008.8 mb 0.00 in0.0 mm 0.00 in/hr0.0 mm/hr 0.00 in0.0 mm
12:19 AM 54.3°F12.4°C 51.5°F10.8°C 90% 3.7 mph NNE6.0 kmh NNE 4.5 mph7.2 kmh 29.79 in1008.8 mb 0.00 in0.0 mm 0.00 in/hr0.0 mm/hr 0.00 in0.0 mm
12:18 AM 54.5°F12.5°C 51.3°F10.7°C 89% 3.8 mph NNE6.1 kmh NNE 4.5 mph7.2 kmh 29.79 in1008.8 mb 0.00 in0.0 mm 0.00 in/hr0.0 mm/hr 0.00 in0.0 mm
12:17 AM 54.3°F12.4°C 51.5°F10.8°C 90% 3.8 mph NNE6.1 kmh NNE 4.5 mph7.2 kmh 29.79 in1008.8 mb 0.00 in0.0 mm 0.00 in/hr0.0 mm/hr 0.00 in0.0 mm
12:16 AM 54.3°F12.4°C 51.5°F10.8°C 90% 3.8 mph NNE6.1 kmh NNE 4.5 mph7.2 kmh 29.78 in1008.5 mb 0.00 in0.0 mm 0.00 in/hr0.0 mm/hr 0.00 in0.0 mm
12:15 AM 54.3°F12.4°C 51.5°F10.8°C 90% 3.7 mph NNE6.0 kmh NNE 4.5 mph7.2 kmh 29.78 in1008.5 mb 0.00 in0.0 mm 0.00 in/hr0.0 mm/hr 0.00 in0.0 mm
12:14 AM 54.3°F12.4°C 51.5°F10.8°C 90% 3.6 mph NNE5.8 kmh NNE 4.5 mph7.2 kmh 29.79 in1008.8 mb 0.00 in0.0 mm 0.00 in/hr0.0 mm/hr 0.00 in0.0 mm
12:13 AM 54.3°F12.4°C 51.8°F11.0°C 91% 3.3 mph NNE5.3 kmh NNE 4.5 mph7.2 kmh 29.79 in1008.8 mb 0.00 in0.0 mm 0.00 in/hr0.0 mm/hr 0.00 in0.0 mm
12:12 AM 54.0°F12.2°C 51.4°F10.8°C 91% 3.1 mph NNE5.0 kmh NNE 4.5 mph7.2 kmh 29.78 in1008.5 mb 0.00 in0.0 mm 0.00 in/hr0.0 mm/hr 0.00 in0.0 mm
12:11 AM 54.1°F12.3°C 51.6°F10.9°C 91% 2.9 mph NNE4.7 kmh NNE 4.5 mph7.2 kmh 29.78 in1008.5 mb 0.00 in0.0 mm 0.00 in/hr0.0 mm/hr 0.00 in0.0 mm
12:10 AM 54.3°F12.4°C 51.8°F11.0°C 91% 2.8 mph NNE4.5 kmh NNE 3.8 mph6.1 kmh 29.78 in1008.5 mb 0.00 in0.0 mm 0.00 in/hr0.0 mm/hr 0.00 in0.0 mm
12:09 AM 53.8°F12.1°C 51.2°F10.7°C 91% 2.7 mph NE4.3 kmh NE 3.8 mph6.1 kmh 29.79 in1008.8 mb 0.00 in0.0 mm 0.00 in/hr0.0 mm/hr 0.00 in0.0 mm
12:08 AM 54.0°F12.2°C 51.4°F10.8°C 91% 2.5 mph NE4.0 kmh NE 3.8 mph6.1 kmh 29.79 in1008.8 mb 0.00 in0.0 mm 0.00 in/hr0.0 mm/hr 0.00 in0.0 mm
12:07 AM 53.8°F12.1°C 51.2°F10.7°C 91% 2.2 mph NE3.5 kmh NE 3.8 mph6.1 kmh 29.79 in1008.8 mb 0.00 in0.0 mm 0.00 in/hr0.0 mm/hr 0.00 in0.0 mm
12:06 AM 54.0°F12.2°C 51.4°F10.8°C 91% 2.0 mph NE3.2 kmh NE 3.1 mph5.0 kmh 29.79 in1008.8 mb 0.00 in0.0 mm 0.00 in/hr0.0 mm/hr 0.00 in0.0 mm
12:05 AM 54.0°F12.2°C 51.1°F10.6°C 90% 2.0 mph NE3.2 kmh NE 3.1 mph5.0 kmh 29.79 in1008.8 mb 0.00 in0.0 mm 0.00 in/hr0.0 mm/hr 0.00 in0.0 mm
12:04 AM 54.1°F12.3°C 51.3°F10.7°C 90% 2.1 mph NE3.4 kmh NE 3.1 mph5.0 kmh 29.79 in1008.8 mb 0.00 in0.0 mm 0.00 in/hr0.0 mm/hr 0.00 in0.0 mm
12:03 AM 54.1°F12.3°C 51.3°F10.7°C 90% 2.2 mph NE3.5 kmh NE 3.1 mph5.0 kmh 29.79 in1008.8 mb 0.00 in0.0 mm 0.00 in/hr0.0 mm/hr 0.00 in0.0 mm
12:02 AM 54.3°F12.4°C 51.5°F10.8°C 90% 2.2 mph NE3.5 kmh NE 3.1 mph5.0 kmh 29.79 in1008.8 mb 0.00 in0.0 mm 0.00 in/hr0.0 mm/hr 0.00 in0.0 mm
12:01 AM 54.3°F12.4°C 51.5°F10.8°C 90% 2.3 mph NE3.7 kmh NE 3.1 mph5.0 kmh 29.79 in1008.8 mb 0.00 in0.0 mm 0.00 in/hr0.0 mm/hr 0.00 in0.0 mm
12:00 AM 54.3°F12.4°C 51.5°F10.8°C 90% 2.3 mph NE3.7 kmh NE 3.8 mph6.1 kmh 29.79 in1008.8 mb 0.00 in0.0 mm 0.00 in/hr0.0 mm/hr 0.00 in0.0 mm